RYR12DE LIPY-EGSS
Flight info
| Callsign | RYR12DE |
|---|---|
| Flight time | 2h 4m |
| Altitude | 36000 |
| Route | LANLI L612 ARDAM DCT CHI DCT ROKIB DCT UNIMI L12 MOGTI DCT KPT DCT KUNOD L608 TEDGO DCT SUNEG L608 ULNOK DCT ADENU DCT LIRSU DCT SPI DCT KOZUF DCT IMPOH DCT SASKI L608 SUMUM Y6 TOSVA |
| Aircraft | B738/M-SDE2E3FGHIRWXY/LB1 |
Departure
| Time | 2026-05-04 11:27 |
|---|---|
| Airport | Marche Airport (LIPY) |
Arrival
| Time | 2026-05-04 13:32 |
|---|---|
| Airport | London Stansted Airport (EGSS) |
| Time | Latitude | Longitude | Altitude | Speed | Heading |
|---|---|---|---|---|---|
| 2026-05-04 10:51 | 43.60706 | 13.35392 | 54 ft | 0 kts | 159° |
| 2026-05-04 11:23 | 43.60704 | 13.35391 | 54 ft | 1 kts | 182° |
| 2026-05-04 11:23 | 43.60702 | 13.35383 | 54 ft | 1 kts | 254° |
| 2026-05-04 11:24 | 43.60704 | 13.35263 | 51 ft | 6 kts | 251° |
| 2026-05-04 11:25 | 43.60723 | 13.35218 | 48 ft | 6 kts | 320° |
| 2026-05-04 11:25 | 43.60755 | 13.35181 | 50 ft | 6 kts | 319° |
| 2026-05-04 11:25 | 43.60793 | 13.35136 | 51 ft | 8 kts | 320° |
| 2026-05-04 11:26 | 43.61061 | 13.35450 | 52 ft | 79 kts | 45° |
| 2026-05-04 11:27 | 43.67461 | 13.43444 | 3254 ft | 228 kts | 9° |
| 2026-05-04 11:28 | 43.69032 | 13.43312 | 3815 ft | 240 kts | 349° |
| 2026-05-04 11:28 | 43.70757 | 13.42783 | 4130 ft | 264 kts | 347° |
| 2026-05-04 11:28 | 43.72572 | 13.42202 | 4826 ft | 271 kts | 346° |
| 2026-05-04 11:28 | 43.74422 | 13.41621 | 5630 ft | 273 kts | 347° |
| 2026-05-04 11:29 | 43.76283 | 13.41048 | 6449 ft | 275 kts | 347° |
| 2026-05-04 11:29 | 43.78161 | 13.40476 | 7236 ft | 278 kts | 347° |
| 2026-05-04 11:29 | 43.80022 | 13.39696 | 7923 ft | 283 kts | 329° |
| 2026-05-04 11:29 | 43.81527 | 13.37959 | 8674 ft | 283 kts | 314° |
| 2026-05-04 11:31 | 43.92380 | 13.22664 | 12496 ft | 350 kts | 314° |
| 2026-05-04 11:33 | 44.06946 | 13.09059 | 17321 ft | 377 kts | 330° |
| 2026-05-04 11:33 | 44.09244 | 13.07262 | 17951 ft | 381 kts | 330° |
| 2026-05-04 11:33 | 44.11561 | 13.05434 | 18584 ft | 385 kts | 329° |
| 2026-05-04 11:34 | 44.13900 | 13.03578 | 19226 ft | 387 kts | 329° |
| 2026-05-04 11:34 | 44.16242 | 13.01715 | 19883 ft | 389 kts | 329° |
| 2026-05-04 11:34 | 44.18599 | 12.99836 | 20459 ft | 393 kts | 329° |
| 2026-05-04 11:34 | 44.20985 | 12.97932 | 21044 ft | 396 kts | 329° |
| 2026-05-04 11:35 | 44.23377 | 12.96022 | 21645 ft | 398 kts | 329° |
| 2026-05-04 11:35 | 44.25784 | 12.94101 | 22208 ft | 399 kts | 329° |
| 2026-05-04 11:35 | 44.28205 | 12.92165 | 22726 ft | 403 kts | 329° |
| 2026-05-04 11:35 | 44.30638 | 12.90217 | 23244 ft | 405 kts | 329° |
| 2026-05-04 11:36 | 44.33091 | 12.88251 | 23782 ft | 407 kts | 329° |
| 2026-05-04 11:36 | 44.35551 | 12.86283 | 24290 ft | 409 kts | 329° |
| 2026-05-04 11:36 | 44.38032 | 12.84305 | 24751 ft | 412 kts | 329° |
| 2026-05-04 11:36 | 44.40525 | 12.82320 | 25215 ft | 414 kts | 329° |
| 2026-05-04 11:37 | 44.43040 | 12.80315 | 25672 ft | 416 kts | 329° |
| 2026-05-04 11:37 | 44.45559 | 12.78303 | 26133 ft | 418 kts | 329° |
| 2026-05-04 11:37 | 44.48091 | 12.76278 | 26542 ft | 420 kts | 329° |
| 2026-05-04 11:37 | 44.50602 | 12.74267 | 26944 ft | 422 kts | 329° |
| 2026-05-04 11:38 | 44.53157 | 12.72220 | 27358 ft | 424 kts | 329° |
| 2026-05-04 11:38 | 44.55723 | 12.70158 | 27752 ft | 426 kts | 328° |
| 2026-05-04 11:38 | 44.58333 | 12.68050 | 28136 ft | 428 kts | 328° |
| 2026-05-04 11:38 | 44.60920 | 12.65954 | 28496 ft | 430 kts | 328° |
| 2026-05-04 11:39 | 44.63482 | 12.63875 | 28856 ft | 432 kts | 328° |
| 2026-05-04 11:39 | 44.66132 | 12.61725 | 29218 ft | 434 kts | 328° |
| 2026-05-04 11:40 | 44.81848 | 12.48929 | 31512 ft | 434 kts | 328° |
| 2026-05-04 11:41 | 44.84457 | 12.46789 | 31872 ft | 433 kts | 327° |
| 2026-05-04 11:41 | 44.87058 | 12.44651 | 32229 ft | 433 kts | 327° |
| 2026-05-04 11:41 | 44.89659 | 12.42509 | 32595 ft | 432 kts | 328° |
| 2026-05-04 11:41 | 44.92256 | 12.40369 | 32918 ft | 432 kts | 328° |
| 2026-05-04 11:42 | 44.94843 | 12.38237 | 33270 ft | 431 kts | 327° |
| 2026-05-04 11:42 | 44.97433 | 12.36100 | 33626 ft | 430 kts | 327° |
| 2026-05-04 11:42 | 45.00012 | 12.33969 | 33966 ft | 429 kts | 327° |
| 2026-05-04 11:42 | 45.01715 | 12.32561 | 34156 ft | 429 kts | 327° |
| 2026-05-04 11:43 | 45.04294 | 12.30428 | 34418 ft | 430 kts | 327° |
| 2026-05-04 11:43 | 45.06880 | 12.28291 | 34700 ft | 430 kts | 328° |
| 2026-05-04 11:43 | 45.09535 | 12.26335 | 35013 ft | 430 kts | 332° |
| 2026-05-04 11:43 | 45.12232 | 12.24509 | 35297 ft | 430 kts | 333° |
| 2026-05-04 11:44 | 45.14943 | 12.22725 | 35567 ft | 430 kts | 333° |
| 2026-05-04 11:44 | 45.17655 | 12.20948 | 35810 ft | 430 kts | 333° |
| 2026-05-04 11:44 | 45.20367 | 12.19159 | 35986 ft | 432 kts | 333° |
| 2026-05-04 11:45 | 45.25847 | 12.15504 | 35967 ft | 435 kts | 333° |
| 2026-05-04 11:45 | 45.31281 | 12.11845 | 35964 ft | 429 kts | 332° |
| 2026-05-04 11:46 | 45.36669 | 12.08201 | 35976 ft | 429 kts | 332° |
| 2026-05-04 11:46 | 45.42056 | 12.04533 | 35982 ft | 430 kts | 332° |
| 2026-05-04 11:47 | 45.47452 | 12.00876 | 35985 ft | 430 kts | 332° |
| 2026-05-04 11:47 | 45.52849 | 11.97203 | 35980 ft | 431 kts | 332° |
| 2026-05-04 11:48 | 45.58261 | 11.93511 | 35981 ft | 431 kts | 332° |
| 2026-05-04 11:48 | 45.63685 | 11.89806 | 35982 ft | 432 kts | 332° |
| 2026-05-04 11:49 | 45.69113 | 11.86085 | 35986 ft | 433 kts | 332° |
| 2026-05-04 11:49 | 45.74557 | 11.82344 | 35983 ft | 434 kts | 332° |
| 2026-05-04 11:50 | 45.80004 | 11.78595 | 35990 ft | 434 kts | 332° |
| 2026-05-04 11:50 | 45.85458 | 11.74850 | 36006 ft | 434 kts | 332° |
| 2026-05-04 11:51 | 45.90902 | 11.71078 | 36003 ft | 436 kts | 332° |
| 2026-05-04 11:51 | 45.96371 | 11.67312 | 36011 ft | 436 kts | 333° |
| 2026-05-04 11:52 | 46.01867 | 11.63658 | 36025 ft | 435 kts | 333° |
| 2026-05-04 11:52 | 46.07320 | 11.60041 | 36050 ft | 433 kts | 333° |
| 2026-05-04 11:53 | 46.12822 | 11.56367 | 36050 ft | 433 kts | 333° |
| 2026-05-04 11:53 | 46.18298 | 11.52695 | 36053 ft | 434 kts | 333° |
| 2026-05-04 11:55 | 46.40138 | 11.37953 | 35965 ft | 435 kts | 332° |
| 2026-05-04 11:56 | 46.45625 | 11.34229 | 35935 ft | 436 kts | 332° |
| 2026-05-04 11:56 | 46.51111 | 11.30499 | 35913 ft | 435 kts | 332° |
| 2026-05-04 11:57 | 46.56586 | 11.26767 | 35921 ft | 434 kts | 332° |
| 2026-05-04 11:57 | 46.62047 | 11.23037 | 35928 ft | 434 kts | 332° |
| 2026-05-04 11:58 | 46.67505 | 11.19300 | 35937 ft | 433 kts | 332° |
| 2026-05-04 11:58 | 46.72951 | 11.15562 | 35940 ft | 432 kts | 332° |
| 2026-05-04 11:59 | 46.78380 | 11.11826 | 35943 ft | 432 kts | 332° |
| 2026-05-04 11:59 | 46.83812 | 11.08082 | 35946 ft | 431 kts | 332° |
| 2026-05-04 12:00 | 46.89252 | 11.04378 | 35932 ft | 432 kts | 333° |
| 2026-05-04 12:00 | 46.94736 | 11.00742 | 35930 ft | 432 kts | 333° |
| 2026-05-04 12:01 | 47.00224 | 10.97147 | 35923 ft | 432 kts | 333° |
| 2026-05-04 12:02 | 47.19462 | 10.84554 | 35898 ft | 434 kts | 333° |
| 2026-05-04 12:03 | 47.24972 | 10.80921 | 35900 ft | 434 kts | 332° |
| 2026-05-04 12:03 | 47.30502 | 10.77267 | 35901 ft | 436 kts | 332° |
| 2026-05-04 12:04 | 47.36040 | 10.73600 | 35890 ft | 437 kts | 332° |
| 2026-05-04 12:04 | 47.41390 | 10.69417 | 35886 ft | 433 kts | 322° |
| 2026-05-04 12:05 | 47.46312 | 10.64302 | 35861 ft | 433 kts | 321° |
| 2026-05-04 12:05 | 47.51227 | 10.59136 | 35886 ft | 434 kts | 321° |
| 2026-05-04 12:06 | 47.56174 | 10.54020 | 35863 ft | 434 kts | 321° |
| 2026-05-04 12:06 | 47.61124 | 10.48927 | 35872 ft | 433 kts | 321° |
| 2026-05-04 12:07 | 47.66060 | 10.43840 | 35860 ft | 431 kts | 321° |
| 2026-05-04 12:07 | 47.70978 | 10.38757 | 35869 ft | 431 kts | 321° |
| 2026-05-04 12:08 | 47.75855 | 10.33605 | 35862 ft | 428 kts | 318° |
| 2026-05-04 12:08 | 47.80467 | 10.28052 | 35870 ft | 426 kts | 316° |
| 2026-05-04 12:09 | 47.85008 | 10.22405 | 35870 ft | 426 kts | 316° |
| 2026-05-04 12:09 | 47.89576 | 10.16762 | 35864 ft | 426 kts | 316° |
| 2026-05-04 12:10 | 47.94160 | 10.11136 | 35860 ft | 428 kts | 316° |
| 2026-05-04 12:10 | 47.98764 | 10.05487 | 35860 ft | 429 kts | 316° |
| 2026-05-04 12:11 | 48.03351 | 9.99844 | 35872 ft | 431 kts | 316° |
| 2026-05-04 12:11 | 48.07984 | 9.94129 | 35860 ft | 433 kts | 316° |
| 2026-05-04 12:12 | 48.12637 | 9.88377 | 35862 ft | 434 kts | 316° |
| 2026-05-04 12:12 | 48.17269 | 9.82637 | 35971 ft | 432 kts | 316° |
| 2026-05-04 12:14 | 48.35733 | 9.59588 | 35994 ft | 432 kts | 316° |
| 2026-05-04 12:15 | 48.40311 | 9.53706 | 35985 ft | 432 kts | 315° |
| 2026-05-04 12:15 | 48.44870 | 9.47820 | 35997 ft | 432 kts | 315° |
| 2026-05-04 12:16 | 48.49434 | 9.41923 | 35990 ft | 432 kts | 315° |
| 2026-05-04 12:16 | 48.53998 | 9.36022 | 35989 ft | 432 kts | 315° |
| 2026-05-04 12:17 | 48.58565 | 9.30107 | 35986 ft | 432 kts | 315° |
| 2026-05-04 12:17 | 48.63396 | 9.24693 | 35987 ft | 439 kts | 329° |
| 2026-05-04 12:18 | 48.68972 | 9.20899 | 35985 ft | 441 kts | 332° |
| 2026-05-04 12:18 | 48.74610 | 9.17226 | 35997 ft | 440 kts | 332° |
| 2026-05-04 12:19 | 48.80206 | 9.13495 | 35979 ft | 440 kts | 332° |
| 2026-05-04 12:19 | 48.85793 | 9.09717 | 35997 ft | 439 kts | 331° |
| 2026-05-04 12:20 | 48.91368 | 9.05919 | 36000 ft | 439 kts | 331° |
| 2026-05-04 12:20 | 48.96951 | 9.02121 | 36001 ft | 440 kts | 331° |
| 2026-05-04 12:21 | 49.02535 | 8.98314 | 36002 ft | 440 kts | 331° |
| 2026-05-04 12:21 | 49.08135 | 8.94483 | 35998 ft | 442 kts | 331° |
| 2026-05-04 12:22 | 49.13741 | 8.90637 | 36003 ft | 442 kts | 331° |
| 2026-05-04 12:22 | 49.19358 | 8.86778 | 35998 ft | 443 kts | 332° |
| 2026-05-04 12:23 | 49.25189 | 8.83605 | 36006 ft | 446 kts | 338° |
| 2026-05-04 12:23 | 49.31136 | 8.80836 | 36003 ft | 447 kts | 339° |
| 2026-05-04 12:24 | 49.37059 | 8.78016 | 35997 ft | 444 kts | 338° |
| 2026-05-04 12:24 | 49.42953 | 8.75157 | 36001 ft | 444 kts | 338° |
| 2026-05-04 12:25 | 49.48807 | 8.72274 | 35989 ft | 445 kts | 338° |
| 2026-05-04 12:25 | 49.54693 | 8.69366 | 35993 ft | 444 kts | 338° |
| 2026-05-04 12:26 | 49.60577 | 8.66463 | 35990 ft | 444 kts | 338° |
| 2026-05-04 12:26 | 49.66463 | 8.63551 | 35994 ft | 444 kts | 338° |
| 2026-05-04 12:27 | 49.72099 | 8.59868 | 35997 ft | 435 kts | 323° |
| 2026-05-04 12:27 | 49.76683 | 8.54009 | 35999 ft | 426 kts | 311° |
| 2026-05-04 12:28 | 49.80229 | 8.48706 | 35992 ft | 426 kts | 311° |
| 2026-05-04 12:28 | 49.84078 | 8.41890 | 35998 ft | 415 kts | 295° |
| 2026-05-04 12:29 | 49.86030 | 8.33641 | 35998 ft | 405 kts | 277° |
| 2026-05-04 12:29 | 49.87049 | 8.25046 | 36000 ft | 406 kts | 276° |
| 2026-05-04 12:30 | 49.88049 | 8.16427 | 35985 ft | 407 kts | 276° |
| 2026-05-04 12:30 | 49.89078 | 8.07780 | 35995 ft | 408 kts | 277° |
| 2026-05-04 12:31 | 49.90117 | 7.99131 | 35999 ft | 409 kts | 277° |
| 2026-05-04 12:31 | 49.91156 | 7.90463 | 36001 ft | 409 kts | 277° |
| 2026-05-04 12:32 | 49.92703 | 7.77437 | 35999 ft | 409 kts | 277° |
| 2026-05-04 12:33 | 49.93727 | 7.68742 | 36004 ft | 409 kts | 276° |
| 2026-05-04 12:33 | 49.94744 | 7.60065 | 36010 ft | 408 kts | 276° |
| 2026-05-04 12:34 | 49.95751 | 7.51389 | 36014 ft | 408 kts | 276° |
| 2026-05-04 12:34 | 49.96754 | 7.42695 | 36017 ft | 408 kts | 276° |
| 2026-05-04 12:35 | 49.97748 | 7.34025 | 36022 ft | 408 kts | 276° |
| 2026-05-04 12:35 | 49.98737 | 7.25340 | 36015 ft | 408 kts | 276° |
| 2026-05-04 12:36 | 49.99719 | 7.16652 | 36015 ft | 408 kts | 276° |
| 2026-05-04 12:36 | 50.00692 | 7.07975 | 36025 ft | 408 kts | 276° |
| 2026-05-04 12:37 | 50.01663 | 6.99281 | 36014 ft | 408 kts | 275° |
| 2026-05-04 12:37 | 50.02872 | 6.90640 | 36010 ft | 413 kts | 284° |
| 2026-05-04 12:38 | 50.05440 | 6.82551 | 36017 ft | 420 kts | 294° |
| 2026-05-04 12:38 | 50.08323 | 6.74628 | 36008 ft | 420 kts | 294° |
| 2026-05-04 12:39 | 50.11170 | 6.66681 | 36007 ft | 420 kts | 293° |
| 2026-05-04 12:39 | 50.13984 | 6.58719 | 36013 ft | 420 kts | 293° |
| 2026-05-04 12:40 | 50.16773 | 6.50794 | 36010 ft | 420 kts | 293° |
| 2026-05-04 12:40 | 50.19621 | 6.42834 | 36012 ft | 421 kts | 295° |
| 2026-05-04 12:41 | 50.22727 | 6.35057 | 36008 ft | 423 kts | 297° |
| 2026-05-04 12:41 | 50.25881 | 6.27308 | 36009 ft | 423 kts | 296° |
| 2026-05-04 12:42 | 50.29009 | 6.19527 | 36009 ft | 423 kts | 296° |
| 2026-05-04 12:42 | 50.32119 | 6.11711 | 36003 ft | 424 kts | 296° |
| 2026-05-04 12:43 | 50.35224 | 6.03872 | 36001 ft | 424 kts | 296° |
| 2026-05-04 12:43 | 50.38335 | 5.95995 | 36003 ft | 425 kts | 296° |
| 2026-05-04 12:44 | 50.41438 | 5.88117 | 35996 ft | 425 kts | 296° |
| 2026-05-04 12:44 | 50.44536 | 5.80229 | 35999 ft | 425 kts | 296° |
| 2026-05-04 12:45 | 50.47628 | 5.72325 | 35995 ft | 425 kts | 296° |
| 2026-05-04 12:45 | 50.50717 | 5.64417 | 35996 ft | 424 kts | 296° |
| 2026-05-04 12:46 | 50.53940 | 5.56632 | 35985 ft | 426 kts | 299° |
| 2026-05-04 12:46 | 50.57345 | 5.49004 | 35995 ft | 426 kts | 299° |
| 2026-05-04 12:47 | 50.60745 | 5.41382 | 35994 ft | 425 kts | 299° |
| 2026-05-04 12:47 | 50.64116 | 5.33740 | 35983 ft | 424 kts | 298° |
| 2026-05-04 12:48 | 50.67463 | 5.26087 | 35994 ft | 424 kts | 298° |
| 2026-05-04 12:48 | 50.70801 | 5.18425 | 35995 ft | 423 kts | 298° |
| 2026-05-04 12:49 | 50.74129 | 5.10758 | 35993 ft | 423 kts | 298° |
| 2026-05-04 12:49 | 50.77454 | 5.03083 | 35996 ft | 424 kts | 298° |
| 2026-05-04 12:50 | 50.80778 | 4.95388 | 35988 ft | 424 kts | 298° |
| 2026-05-04 12:50 | 50.84095 | 4.87686 | 35992 ft | 424 kts | 298° |
| 2026-05-04 12:51 | 50.87415 | 4.79957 | 35996 ft | 424 kts | 298° |
| 2026-05-04 12:51 | 50.90726 | 4.72225 | 35993 ft | 425 kts | 298° |
| 2026-05-04 12:52 | 50.94038 | 4.64466 | 35991 ft | 425 kts | 298° |
| 2026-05-04 12:52 | 50.97347 | 4.56689 | 35990 ft | 425 kts | 298° |
| 2026-05-04 12:53 | 51.00619 | 4.48979 | 35994 ft | 425 kts | 298° |
| 2026-05-04 12:53 | 51.03919 | 4.41180 | 35992 ft | 425 kts | 298° |
| 2026-05-04 12:54 | 51.07212 | 4.33372 | 35994 ft | 425 kts | 298° |
| 2026-05-04 12:54 | 51.10502 | 4.25547 | 35991 ft | 425 kts | 298° |
| 2026-05-04 12:55 | 51.13783 | 4.17721 | 35993 ft | 425 kts | 298° |
| 2026-05-04 12:55 | 51.17060 | 4.09883 | 35990 ft | 425 kts | 298° |
| 2026-05-04 12:56 | 51.20328 | 4.02040 | 35990 ft | 425 kts | 298° |
| 2026-05-04 12:56 | 51.23594 | 3.94179 | 35984 ft | 425 kts | 298° |
| 2026-05-04 12:57 | 51.26849 | 3.86319 | 35999 ft | 424 kts | 298° |
| 2026-05-04 12:57 | 51.30097 | 3.78454 | 36000 ft | 424 kts | 298° |
| 2026-05-04 12:58 | 51.33342 | 3.70574 | 35998 ft | 424 kts | 298° |
| 2026-05-04 12:58 | 51.36008 | 3.62301 | 36003 ft | 413 kts | 282° |
| 2026-05-04 12:59 | 51.37541 | 3.53467 | 36010 ft | 412 kts | 280° |
| 2026-05-04 12:59 | 51.39039 | 3.44614 | 36019 ft | 412 kts | 281° |
| 2026-05-04 13:00 | 51.40570 | 3.35751 | 36019 ft | 413 kts | 281° |
| 2026-05-04 13:00 | 51.42109 | 3.26888 | 35934 ft | 415 kts | 281° |
| 2026-05-04 13:00 | 51.42885 | 3.22399 | 35472 ft | 418 kts | 281° |
| 2026-05-04 13:01 | 51.43659 | 3.17920 | 34910 ft | 417 kts | 280° |
| 2026-05-04 13:01 | 51.44432 | 3.13436 | 34362 ft | 417 kts | 280° |
| 2026-05-04 13:01 | 51.45199 | 3.08953 | 33765 ft | 417 kts | 280° |
| 2026-05-04 13:01 | 51.45948 | 3.04470 | 33177 ft | 417 kts | 279° |
| 2026-05-04 13:02 | 51.46687 | 2.99977 | 32550 ft | 417 kts | 279° |
| 2026-05-04 13:02 | 51.47426 | 2.95463 | 31909 ft | 418 kts | 279° |
| 2026-05-04 13:02 | 51.48163 | 2.90948 | 31330 ft | 418 kts | 279° |
| 2026-05-04 13:02 | 51.48899 | 2.86456 | 30873 ft | 415 kts | 279° |
| 2026-05-04 13:03 | 51.49629 | 2.81995 | 30406 ft | 412 kts | 279° |
| 2026-05-04 13:03 | 51.50351 | 2.77570 | 29954 ft | 409 kts | 279° |
| 2026-05-04 13:03 | 51.51066 | 2.73171 | 29492 ft | 405 kts | 279° |
| 2026-05-04 13:03 | 51.51764 | 2.68864 | 29025 ft | 402 kts | 279° |
| 2026-05-04 13:04 | 51.52474 | 2.64473 | 28555 ft | 400 kts | 279° |
| 2026-05-04 13:04 | 51.53159 | 2.60225 | 28101 ft | 397 kts | 279° |
| 2026-05-04 13:04 | 51.53857 | 2.55896 | 27631 ft | 394 kts | 279° |
| 2026-05-04 13:04 | 51.54538 | 2.51659 | 27180 ft | 390 kts | 279° |
| 2026-05-04 13:05 | 51.55307 | 2.47483 | 26722 ft | 390 kts | 284° |
| 2026-05-04 13:05 | 51.56238 | 2.43403 | 26278 ft | 388 kts | 285° |
| 2026-05-04 13:05 | 51.57191 | 2.39366 | 25832 ft | 385 kts | 285° |
| 2026-05-04 13:05 | 51.58111 | 2.35400 | 25392 ft | 382 kts | 285° |
| 2026-05-04 13:06 | 51.59028 | 2.31409 | 24949 ft | 379 kts | 285° |
| 2026-05-04 13:06 | 51.59929 | 2.27451 | 24513 ft | 376 kts | 285° |
| 2026-05-04 13:06 | 51.60823 | 2.23517 | 24077 ft | 373 kts | 285° |
| 2026-05-04 13:06 | 51.61707 | 2.19618 | 23643 ft | 370 kts | 285° |
| 2026-05-04 13:07 | 51.62593 | 2.15743 | 23207 ft | 368 kts | 287° |
| 2026-05-04 13:07 | 51.63874 | 2.12145 | 22750 ft | 375 kts | 304° |
| 2026-05-04 13:07 | 51.65722 | 2.09165 | 22355 ft | 379 kts | 318° |
| 2026-05-04 13:07 | 51.67978 | 2.06943 | 21941 ft | 381 kts | 328° |
| 2026-05-04 13:08 | 51.70337 | 2.04982 | 21513 ft | 381 kts | 329° |
| 2026-05-04 13:08 | 51.72695 | 2.03053 | 21086 ft | 380 kts | 329° |
| 2026-05-04 13:08 | 51.75048 | 2.01108 | 20662 ft | 379 kts | 329° |
| 2026-05-04 13:08 | 51.77379 | 1.99154 | 20235 ft | 376 kts | 329° |
| 2026-05-04 13:09 | 51.79688 | 1.97196 | 19817 ft | 374 kts | 328° |
| 2026-05-04 13:09 | 51.81977 | 1.95241 | 19398 ft | 371 kts | 329° |
| 2026-05-04 13:09 | 51.84252 | 1.93295 | 18988 ft | 368 kts | 329° |
| 2026-05-04 13:09 | 51.86509 | 1.91361 | 18575 ft | 366 kts | 329° |
| 2026-05-04 13:10 | 51.88719 | 1.89374 | 18160 ft | 361 kts | 322° |
| 2026-05-04 13:10 | 51.90458 | 1.86553 | 17815 ft | 350 kts | 302° |
| 2026-05-04 13:10 | 51.91686 | 1.83197 | 17526 ft | 343 kts | 296° |
| 2026-05-04 13:10 | 51.92795 | 1.79811 | 17207 ft | 339 kts | 295° |
| 2026-05-04 13:11 | 51.93873 | 1.76425 | 16914 ft | 337 kts | 295° |
| 2026-05-04 13:11 | 51.94954 | 1.73044 | 16620 ft | 339 kts | 295° |
| 2026-05-04 13:11 | 51.96047 | 1.69651 | 16321 ft | 341 kts | 295° |
| 2026-05-04 13:11 | 51.97153 | 1.66243 | 16017 ft | 342 kts | 296° |
| 2026-05-04 13:12 | 51.98261 | 1.62845 | 15710 ft | 340 kts | 296° |
| 2026-05-04 13:12 | 51.98993 | 1.60606 | 15508 ft | 339 kts | 296° |
| 2026-05-04 13:12 | 52.00095 | 1.57237 | 15207 ft | 337 kts | 296° |
| 2026-05-04 13:12 | 52.01193 | 1.53879 | 14909 ft | 336 kts | 296° |
| 2026-05-04 13:13 | 52.02285 | 1.50538 | 14612 ft | 335 kts | 296° |
| 2026-05-04 13:13 | 52.03372 | 1.47204 | 14315 ft | 333 kts | 296° |
| 2026-05-04 13:13 | 52.04454 | 1.43884 | 14020 ft | 331 kts | 296° |
| 2026-05-04 13:13 | 52.05529 | 1.40580 | 13721 ft | 330 kts | 296° |
| 2026-05-04 13:14 | 52.06600 | 1.37284 | 13429 ft | 329 kts | 296° |
| 2026-05-04 13:14 | 52.07663 | 1.34009 | 13140 ft | 327 kts | 296° |
| 2026-05-04 13:14 | 52.08722 | 1.30744 | 12850 ft | 326 kts | 296° |
| 2026-05-04 13:14 | 52.09773 | 1.27499 | 12557 ft | 322 kts | 296° |
| 2026-05-04 13:15 | 52.10809 | 1.24293 | 12271 ft | 317 kts | 295° |
| 2026-05-04 13:15 | 52.11469 | 1.20947 | 11973 ft | 309 kts | 274° |
| 2026-05-04 13:15 | 52.11343 | 1.17527 | 11785 ft | 300 kts | 257° |
| 2026-05-04 13:15 | 52.10837 | 1.14277 | 11578 ft | 294 kts | 255° |
| 2026-05-04 13:16 | 52.10296 | 1.11114 | 11362 ft | 288 kts | 254° |
| 2026-05-04 13:16 | 52.09756 | 1.07999 | 11158 ft | 284 kts | 254° |
| 2026-05-04 13:16 | 52.09225 | 1.04913 | 10953 ft | 282 kts | 254° |
| 2026-05-04 13:16 | 52.08701 | 1.01843 | 10755 ft | 282 kts | 254° |
| 2026-05-04 13:17 | 52.08180 | 0.98774 | 10551 ft | 281 kts | 255° |
| 2026-05-04 13:17 | 52.07665 | 0.95723 | 10356 ft | 280 kts | 255° |
| 2026-05-04 13:17 | 52.07152 | 0.92677 | 10138 ft | 279 kts | 255° |
| 2026-05-04 13:17 | 52.06637 | 0.89628 | 9808 ft | 280 kts | 255° |
| 2026-05-04 13:18 | 52.06123 | 0.86575 | 9486 ft | 280 kts | 255° |
| 2026-05-04 13:18 | 52.05609 | 0.83527 | 9157 ft | 279 kts | 255° |
| 2026-05-04 13:18 | 52.05095 | 0.80481 | 8832 ft | 279 kts | 255° |
| 2026-05-04 13:18 | 52.04583 | 0.77455 | 8592 ft | 276 kts | 255° |
| 2026-05-04 13:19 | 52.04097 | 0.74456 | 8337 ft | 274 kts | 259° |
| 2026-05-04 13:19 | 52.03912 | 0.71395 | 8087 ft | 272 kts | 266° |
| 2026-05-04 13:19 | 52.03791 | 0.68333 | 7831 ft | 271 kts | 266° |
| 2026-05-04 13:19 | 52.03669 | 0.65289 | 7588 ft | 270 kts | 266° |
| 2026-05-04 13:20 | 52.03548 | 0.62253 | 7340 ft | 269 kts | 266° |
| 2026-05-04 13:20 | 52.03427 | 0.59218 | 7089 ft | 269 kts | 266° |
| 2026-05-04 13:20 | 52.03304 | 0.56191 | 6840 ft | 268 kts | 266° |
| 2026-05-04 13:20 | 52.03174 | 0.53171 | 6591 ft | 268 kts | 263° |
| 2026-05-04 13:21 | 52.02627 | 0.50299 | 6334 ft | 267 kts | 244° |
| 2026-05-04 13:21 | 52.01770 | 0.47629 | 6084 ft | 266 kts | 242° |
| 2026-05-04 13:21 | 52.00882 | 0.44993 | 5842 ft | 266 kts | 241° |
| 2026-05-04 13:21 | 51.99990 | 0.42362 | 5596 ft | 266 kts | 241° |
| 2026-05-04 13:22 | 51.99114 | 0.39734 | 5340 ft | 265 kts | 246° |
| 2026-05-04 13:22 | 51.98732 | 0.36832 | 5084 ft | 264 kts | 268° |
| 2026-05-04 13:22 | 51.98712 | 0.33870 | 4867 ft | 262 kts | 270° |
| 2026-05-04 13:22 | 51.98728 | 0.30915 | 4614 ft | 262 kts | 271° |
| 2026-05-04 13:23 | 51.98744 | 0.27963 | 4364 ft | 261 kts | 271° |
| 2026-05-04 13:23 | 51.98762 | 0.25015 | 4114 ft | 261 kts | 271° |
| 2026-05-04 13:23 | 51.98706 | 0.22089 | 3996 ft | 260 kts | 259° |
| 2026-05-04 13:23 | 51.97954 | 0.19455 | 3980 ft | 259 kts | 230° |
| 2026-05-04 13:24 | 51.96682 | 0.17434 | 3977 ft | 253 kts | 222° |
| 2026-05-04 13:24 | 51.95389 | 0.15600 | 3941 ft | 242 kts | 221° |
| 2026-05-04 13:24 | 51.94110 | 0.13812 | 3633 ft | 245 kts | 221° |
| 2026-05-04 13:25 | 51.91537 | 0.10242 | 3208 ft | 239 kts | 221° |
| 2026-05-04 13:25 | 51.90286 | 0.08514 | 3081 ft | 235 kts | 221° |
| 2026-05-04 13:25 | 51.89048 | 0.06811 | 2973 ft | 232 kts | 221° |
| 2026-05-04 13:25 | 51.87818 | 0.05122 | 2905 ft | 233 kts | 221° |
| 2026-05-04 13:26 | 51.86578 | 0.03423 | 2835 ft | 234 kts | 221° |
| 2026-05-04 13:26 | 51.85314 | 0.01780 | 2752 ft | 234 kts | 211° |
| 2026-05-04 13:26 | 51.83799 | 0.00915 | 2671 ft | 227 kts | 193° |
| 2026-05-04 13:26 | 51.82279 | 0.00407 | 2575 ft | 218 kts | 191° |
| 2026-05-04 13:27 | 51.80833 | -0.00047 | 2506 ft | 205 kts | 191° |
| 2026-05-04 13:27 | 51.79480 | -0.00468 | 2493 ft | 201 kts | 191° |
| 2026-05-04 13:27 | 51.78100 | -0.00879 | 2489 ft | 202 kts | 186° |
| 2026-05-04 13:27 | 51.76753 | -0.00502 | 2475 ft | 197 kts | 148° |
| 2026-05-04 13:28 | 51.75867 | 0.01089 | 2481 ft | 193 kts | 109° |
| 2026-05-04 13:28 | 51.75791 | 0.03198 | 2486 ft | 190 kts | 75° |
| 2026-05-04 13:28 | 51.76353 | 0.05098 | 2471 ft | 190 kts | 45° |
| 2026-05-04 13:28 | 51.77311 | 0.06552 | 2482 ft | 190 kts | 46° |
| 2026-05-04 13:29 | 51.78250 | 0.08060 | 2483 ft | 191 kts | 45° |
| 2026-05-04 13:29 | 51.79221 | 0.09534 | 2478 ft | 192 kts | 43° |
| 2026-05-04 13:29 | 51.80207 | 0.10994 | 2322 ft | 192 kts | 44° |
| 2026-05-04 13:29 | 51.81172 | 0.12446 | 2083 ft | 188 kts | 45° |
| 2026-05-04 13:30 | 51.82122 | 0.13878 | 1843 ft | 185 kts | 45° |
| 2026-05-04 13:30 | 51.83053 | 0.15284 | 1612 ft | 179 kts | 41° |
| 2026-05-04 13:30 | 51.83936 | 0.16611 | 1409 ft | 164 kts | 41° |
| 2026-05-04 13:30 | 51.84733 | 0.17813 | 1154 ft | 150 kts | 40° |
| 2026-05-04 13:31 | 51.85497 | 0.18962 | 963 ft | 151 kts | 40° |
| 2026-05-04 13:31 | 51.86257 | 0.20107 | 768 ft | 148 kts | 41° |
| 2026-05-04 13:31 | 51.87010 | 0.21249 | 542 ft | 149 kts | 42° |
| 2026-05-04 13:31 | 51.87773 | 0.22390 | 344 ft | 146 kts | 40° |
| 2026-05-04 13:32 | 51.88417 | 0.23342 | 337 ft | 97 kts | 44° |
| 2026-05-04 13:32 | 51.88752 | 0.23851 | 338 ft | 35 kts | 44° |
| 2026-05-04 13:32 | 51.88810 | 0.23971 | 340 ft | 10 kts | 54° |
| 2026-05-04 13:32 | 51.88845 | 0.24071 | 350 ft | 11 kts | 67° |
| 2026-05-04 13:33 | 51.88871 | 0.24188 | 353 ft | 13 kts | 71° |
| 2026-05-04 13:33 | 51.88903 | 0.24340 | 354 ft | 15 kts | 71° |
| 2026-05-04 13:33 | 51.88918 | 0.24478 | 355 ft | 11 kts | 102° |
| 2026-05-04 13:33 | 51.88917 | 0.24591 | 359 ft | 11 kts | 46° |
| 2026-05-04 13:34 | 51.88975 | 0.24673 | 359 ft | 11 kts | 41° |
| 2026-05-04 13:34 | 51.89030 | 0.24756 | 358 ft | 11 kts | 44° |
| 2026-05-04 13:34 | 51.89092 | 0.24851 | 358 ft | 14 kts | 44° |
| 2026-05-04 13:34 | 51.89174 | 0.24978 | 351 ft | 18 kts | 43° |
| 2026-05-04 13:35 | 51.89255 | 0.25148 | 357 ft | 19 kts | 57° |
| 2026-05-04 13:35 | 51.89420 | 0.25434 | 356 ft | 13 kts | 75° |
| 2026-05-04 13:35 | 51.89376 | 0.25554 | 358 ft | 13 kts | 133° |
| 2026-05-04 13:36 | 51.89317 | 0.25657 | 358 ft | 12 kts | 133° |
| 2026-05-04 13:36 | 51.89259 | 0.25758 | 358 ft | 12 kts | 133° |
| 2026-05-04 13:36 | 51.89212 | 0.25813 | 355 ft | 5 kts | 197° |
| 2026-05-04 13:36 | 51.89189 | 0.25779 | 355 ft | 5 kts | 224° |
| 2026-05-04 13:37 | 51.89166 | 0.25744 | 358 ft | 2 kts | 223° |
| 2026-05-04 13:37 | 51.89165 | 0.25743 | 358 ft | 0 kts | 223° |